sensor_id;sensor_type;location;lat;lon;timestamp;pressure;altitude;pressure_sealevel;temperature;humidity
47330;BME280;33060;50.178;7.570;2024-03-08T00:02:18;96972.72;;;3.26;100.00
47330;BME280;33060;50.178;7.570;2024-03-08T00:04:46;96981.13;;;3.33;100.00
47330;BME280;33060;50.178;7.570;2024-03-08T00:07:12;96975.13;;;3.31;99.58
47330;BME280;33060;50.178;7.570;2024-03-08T00:09:40;96975.63;;;3.19;100.00
47330;BME280;33060;50.178;7.570;2024-03-08T00:12:06;96978.97;;;3.22;100.00
47330;BME280;33060;50.178;7.570;2024-03-08T00:14:33;96968.06;;;3.12;100.00
47330;BME280;33060;50.178;7.570;2024-03-08T00:17:00;96981.25;;;3.09;100.00
47330;BME280;33060;50.178;7.570;2024-03-08T00:19:27;96973.41;;;3.09;100.00
47330;BME280;33060;50.178;7.570;2024-03-08T00:21:53;96967.44;;;3.28;100.00
47330;BME280;33060;50.178;7.570;2024-03-08T00:24:21;96969.09;;;3.30;99.40
47330;BME280;33060;50.178;7.570;2024-03-08T00:26:51;96965.09;;;3.22;99.06
47330;BME280;33060;50.178;7.570;2024-03-08T00:29:20;96969.78;;;3.14;98.93
47330;BME280;33060;50.178;7.570;2024-03-08T00:31:46;96964.31;;;3.20;99.01
47330;BME280;33060;50.178;7.570;2024-03-08T00:34:13;96959.22;;;3.17;99.43
47330;BME280;33060;50.178;7.570;2024-03-08T00:36:40;96958.69;;;3.08;99.03
47330;BME280;33060;50.178;7.570;2024-03-08T00:39:06;96961.56;;;3.02;100.00
47330;BME280;33060;50.178;7.570;2024-03-08T00:41:33;96960.25;;;2.92;100.00
47330;BME280;33060;50.178;7.570;2024-03-08T00:44:00;96955.03;;;3.12;99.81
47330;BME280;33060;50.178;7.570;2024-03-08T00:46:27;96948.41;;;3.05;99.52
47330;BME280;33060;50.178;7.570;2024-03-08T00:48:55;96958.41;;;2.94;99.86
47330;BME280;33060;50.178;7.570;2024-03-08T00:51:23;96952.88;;;3.02;99.22
47330;BME280;33060;50.178;7.570;2024-03-08T00:53:49;96951.66;;;2.90;99.61
47330;BME280;33060;50.178;7.570;2024-03-08T00:56:16;96956.56;;;2.76;100.00
47330;BME280;33060;50.178;7.570;2024-03-08T00:58:43;96952.03;;;2.81;100.00
47330;BME280;33060;50.178;7.570;2024-03-08T01:01:10;96944.59;;;2.72;100.00
47330;BME280;33060;50.178;7.570;2024-03-08T01:03:36;96939.19;;;2.76;100.00
47330;BME280;33060;50.178;7.570;2024-03-08T01:06:03;96932.44;;;2.93;100.00
47330;BME280;33060;50.178;7.570;2024-03-08T01:08:31;96934.78;;;2.78;99.69
47330;BME280;33060;50.178;7.570;2024-03-08T01:10:57;96933.34;;;2.71;100.00
47330;BME280;33060;50.178;7.570;2024-03-08T01:13:24;96926.97;;;2.78;99.87
47330;BME280;33060;50.178;7.570;2024-03-08T01:15:51;96930.06;;;2.66;100.00
47330;BME280;33060;50.178;7.570;2024-03-08T01:18:18;96921.34;;;2.67;100.00
47330;BME280;33060;50.178;7.570;2024-03-08T01:20:46;96914.56;;;2.63;100.00
47330;BME280;33060;50.178;7.570;2024-03-08T01:23:13;96913.81;;;2.60;100.00
47330;BME280;33060;50.178;7.570;2024-03-08T01:25:40;96912.69;;;2.67;100.00
47330;BME280;33060;50.178;7.570;2024-03-08T01:28:07;96903.69;;;2.53;100.00
47330;BME280;33060;50.178;7.570;2024-03-08T01:30:35;96903.56;;;2.57;100.00
47330;BME280;33060;50.178;7.570;2024-03-08T01:33:04;96897.31;;;2.61;100.00
47330;BME280;33060;50.178;7.570;2024-03-08T01:35:31;96891.84;;;2.67;100.00
47330;BME280;33060;50.178;7.570;2024-03-08T01:37:57;96893.66;;;2.65;99.77
47330;BME280;33060;50.178;7.570;2024-03-08T01:40:24;96895.75;;;2.57;100.00
47330;BME280;33060;50.178;7.570;2024-03-08T01:42:51;96886.00;;;2.62;100.00
47330;BME280;33060;50.178;7.570;2024-03-08T01:45:17;96886.38;;;2.52;100.00
47330;BME280;33060;50.178;7.570;2024-03-08T01:47:44;96891.69;;;2.49;100.00
47330;BME280;33060;50.178;7.570;2024-03-08T01:50:11;96888.84;;;2.55;100.00
47330;BME280;33060;50.178;7.570;2024-03-08T01:52:38;96884.94;;;2.45;100.00
47330;BME280;33060;50.178;7.570;2024-03-08T01:55:05;96889.59;;;2.37;100.00
47330;BME280;33060;50.178;7.570;2024-03-08T01:57:35;96887.09;;;2.56;100.00
47330;BME280;33060;50.178;7.570;2024-03-08T02:00:02;96878.59;;;2.51;100.00
47330;BME280;33060;50.178;7.570;2024-03-08T02:02:32;96870.75;;;2.52;100.00
47330;BME280;33060;50.178;7.570;2024-03-08T02:05:00;96866.50;;;2.50;100.00
47330;BME280;33060;50.178;7.570;2024-03-08T02:07:27;96861.50;;;2.45;100.00
47330;BME280;33060;50.178;7.570;2024-03-08T02:09:54;96871.44;;;2.36;100.00
47330;BME280;33060;50.178;7.570;2024-03-08T02:12:21;96874.69;;;2.41;100.00
47330;BME280;33060;50.178;7.570;2024-03-08T02:14:48;96870.00;;;2.29;100.00
47330;BME280;33060;50.178;7.570;2024-03-08T02:17:15;96864.38;;;2.17;100.00
47330;BME280;33060;50.178;7.570;2024-03-08T02:19:41;96872.06;;;2.20;100.00
47330;BME280;33060;50.178;7.570;2024-03-08T02:22:08;96863.50;;;2.17;100.00
47330;BME280;33060;50.178;7.570;2024-03-08T02:24:35;96864.84;;;2.05;100.00
47330;BME280;33060;50.178;7.570;2024-03-08T02:27:02;96860.25;;;2.12;100.00
47330;BME280;33060;50.178;7.570;2024-03-08T02:29:29;96850.22;;;2.03;100.00
47330;BME280;33060;50.178;7.570;2024-03-08T02:31:57;96849.97;;;2.09;100.00
47330;BME280;33060;50.178;7.570;2024-03-08T02:34:24;96844.78;;;2.09;100.00
47330;BME280;33060;50.178;7.570;2024-03-08T02:36:51;96844.81;;;2.07;100.00
47330;BME280;33060;50.178;7.570;2024-03-08T02:39:18;96844.72;;;2.10;100.00
47330;BME280;33060;50.178;7.570;2024-03-08T02:41:46;96843.13;;;2.06;100.00
47330;BME280;33060;50.178;7.570;2024-03-08T02:44:13;96836.06;;;2.10;100.00
47330;BME280;33060;50.178;7.570;2024-03-08T02:46:41;96838.91;;;2.04;100.00
47330;BME280;33060;50.178;7.570;2024-03-08T02:49:08;96833.94;;;1.97;100.00
47330;BME280;33060;50.178;7.570;2024-03-08T02:51:34;96838.06;;;2.03;100.00
47330;BME280;33060;50.178;7.570;2024-03-08T02:54:02;96835.50;;;2.02;100.00
47330;BME280;33060;50.178;7.570;2024-03-08T02:56:30;96832.91;;;2.02;100.00
47330;BME280;33060;50.178;7.570;2024-03-08T02:59:01;96833.38;;;1.89;100.00
47330;BME280;33060;50.178;7.570;2024-03-08T03:01:28;96835.06;;;1.90;100.00
47330;BME280;33060;50.178;7.570;2024-03-08T03:03:55;96840.81;;;1.98;100.00
47330;BME280;33060;50.178;7.570;2024-03-08T03:06:22;96831.81;;;1.85;100.00
47330;BME280;33060;50.178;7.570;2024-03-08T03:08:48;96826.72;;;1.82;100.00
47330;BME280;33060;50.178;7.570;2024-03-08T03:11:15;96830.22;;;1.81;100.00
47330;BME280;33060;50.178;7.570;2024-03-08T03:13:42;96826.50;;;1.88;100.00
47330;BME280;33060;50.178;7.570;2024-03-08T03:16:20;96826.97;;;1.76;100.00
47330;BME280;33060;50.178;7.570;2024-03-08T03:18:47;96821.94;;;1.72;100.00
47330;BME280;33060;50.178;7.570;2024-03-08T03:21:15;96814.28;;;1.68;100.00
47330;BME280;33060;50.178;7.570;2024-03-08T03:23:42;96810.47;;;1.77;100.00
47330;BME280;33060;50.178;7.570;2024-03-08T03:26:11;96808.00;;;1.74;100.00
47330;BME280;33060;50.178;7.570;2024-03-08T03:28:39;96802.91;;;1.71;100.00
47330;BME280;33060;50.178;7.570;2024-03-08T03:31:07;96805.41;;;1.74;100.00
47330;BME280;33060;50.178;7.570;2024-03-08T03:33:36;96804.34;;;1.78;100.00
47330;BME280;33060;50.178;7.570;2024-03-08T03:36:04;96805.50;;;1.71;100.00
47330;BME280;33060;50.178;7.570;2024-03-08T03:38:31;96802.91;;;1.71;100.00
47330;BME280;33060;50.178;7.570;2024-03-08T03:40:58;96800.00;;;1.57;100.00
47330;BME280;33060;50.178;7.570;2024-03-08T03:43:33;96791.16;;;1.61;100.00
47330;BME280;33060;50.178;7.570;2024-03-08T03:45:59;96787.13;;;1.54;100.00
47330;BME280;33060;50.178;7.570;2024-03-08T03:48:26;96792.03;;;1.61;100.00
47330;BME280;33060;50.178;7.570;2024-03-08T03:50:53;96791.72;;;1.69;100.00
47330;BME280;33060;50.178;7.570;2024-03-08T03:53:20;96797.69;;;1.49;100.00
47330;BME280;33060;50.178;7.570;2024-03-08T03:55:46;96796.50;;;1.58;100.00
47330;BME280;33060;50.178;7.570;2024-03-08T03:58:13;96796.94;;;1.46;100.00
47330;BME280;33060;50.178;7.570;2024-03-08T04:00:40;96792.25;;;1.55;100.00
47330;BME280;33060;50.178;7.570;2024-03-08T04:03:07;96789.72;;;1.54;100.00
47330;BME280;33060;50.178;7.570;2024-03-08T04:05:35;96794.59;;;1.39;100.00
47330;BME280;33060;50.178;7.570;2024-03-08T04:08:02;96786.19;;;1.33;100.00
47330;BME280;33060;50.178;7.570;2024-03-08T04:10:29;96784.09;;;1.42;100.00
47330;BME280;33060;50.178;7.570;2024-03-08T04:12:56;96782.13;;;1.48;100.00
47330;BME280;33060;50.178;7.570;2024-03-08T04:15:23;96773.13;;;1.34;100.00
47330;BME280;33060;50.178;7.570;2024-03-08T04:17:50;96778.28;;;1.36;100.00
47330;BME280;33060;50.178;7.570;2024-03-08T04:20:17;96781.56;;;1.41;100.00
47330;BME280;33060;50.178;7.570;2024-03-08T04:22:44;96785.00;;;1.41;100.00
47330;BME280;33060;50.178;7.570;2024-03-08T04:25:13;96787.88;;;1.34;100.00
47330;BME280;33060;50.178;7.570;2024-03-08T04:27:40;96776.50;;;1.36;100.00
47330;BME280;33060;50.178;7.570;2024-03-08T04:30:07;96777.16;;;1.20;100.00
47330;BME280;33060;50.178;7.570;2024-03-08T04:32:35;96777.78;;;1.26;100.00
47330;BME280;33060;50.178;7.570;2024-03-08T04:35:02;96771.56;;;1.30;100.00
47330;BME280;33060;50.178;7.570;2024-03-08T04:37:30;96771.00;;;1.22;100.00
47330;BME280;33060;50.178;7.570;2024-03-08T04:39:57;96772.72;;;1.23;100.00
47330;BME280;33060;50.178;7.570;2024-03-08T04:42:24;96759.38;;;1.32;100.00
47330;BME280;33060;50.178;7.570;2024-03-08T04:44:52;96758.22;;;1.39;100.00
47330;BME280;33060;50.178;7.570;2024-03-08T04:47:20;96767.03;;;1.35;100.00
47330;BME280;33060;50.178;7.570;2024-03-08T04:49:46;96767.16;;;1.32;100.00
47330;BME280;33060;50.178;7.570;2024-03-08T04:52:13;96757.06;;;1.25;100.00
47330;BME280;33060;50.178;7.570;2024-03-08T04:54:40;96761.69;;;1.17;100.00
47330;BME280;33060;50.178;7.570;2024-03-08T04:57:07;96757.41;;;1.16;100.00
47330;BME280;33060;50.178;7.570;2024-03-08T04:59:35;96748.63;;;1.18;100.00
47330;BME280;33060;50.178;7.570;2024-03-08T05:02:03;96756.56;;;1.15;100.00
47330;BME280;33060;50.178;7.570;2024-03-08T05:04:29;96754.13;;;1.10;100.00
47330;BME280;33060;50.178;7.570;2024-03-08T05:06:56;96734.09;;;1.14;100.00
47330;BME280;33060;50.178;7.570;2024-03-08T05:09:23;96736.63;;;1.16;100.00
47330;BME280;33060;50.178;7.570;2024-03-08T05:11:50;96744.56;;;1.11;100.00
47330;BME280;33060;50.178;7.570;2024-03-08T05:14:17;96751.47;;;1.12;100.00
47330;BME280;33060;50.178;7.570;2024-03-08T05:16:47;96746.09;;;1.17;100.00
47330;BME280;33060;50.178;7.570;2024-03-08T05:19:17;96737.34;;;1.19;100.00
47330;BME280;33060;50.178;7.570;2024-03-08T05:21:45;96745.47;;;1.10;100.00
47330;BME280;33060;50.178;7.570;2024-03-08T05:24:12;96738.25;;;1.18;100.00
47330;BME280;33060;50.178;7.570;2024-03-08T05:26:43;96734.31;;;1.08;100.00
47330;BME280;33060;50.178;7.570;2024-03-08T05:29:10;96728.75;;;1.17;100.00
47330;BME280;33060;50.178;7.570;2024-03-08T05:31:47;96737.03;;;1.05;100.00
47330;BME280;33060;50.178;7.570;2024-03-08T05:34:15;96729.00;;;1.11;100.00
47330;BME280;33060;50.178;7.570;2024-03-08T05:36:42;96726.66;;;1.05;100.00
47330;BME280;33060;50.178;7.570;2024-03-08T05:39:13;96730.53;;;1.17;100.00
47330;BME280;33060;50.178;7.570;2024-03-08T05:41:40;96735.66;;;1.18;100.00
47330;BME280;33060;50.178;7.570;2024-03-08T05:44:08;96729.84;;;1.11;100.00
47330;BME280;33060;50.178;7.570;2024-03-08T05:46:35;96733.59;;;1.04;100.00
47330;BME280;33060;50.178;7.570;2024-03-08T05:49:06;96722.22;;;1.07;100.00
47330;BME280;33060;50.178;7.570;2024-03-08T05:51:34;96727.88;;;0.95;100.00
47330;BME280;33060;50.178;7.570;2024-03-08T05:54:05;96717.03;;;1.07;100.00
47330;BME280;33060;50.178;7.570;2024-03-08T05:56:33;96728.00;;;0.92;100.00
47330;BME280;33060;50.178;7.570;2024-03-08T05:59:00;96711.00;;;1.06;100.00
47330;BME280;33060;50.178;7.570;2024-03-08T06:01:27;96710.22;;;1.04;100.00
47330;BME280;33060;50.178;7.570;2024-03-08T06:03:54;96721.75;;;0.97;100.00
47330;BME280;33060;50.178;7.570;2024-03-08T06:06:24;96716.69;;;0.93;100.00
47330;BME280;33060;50.178;7.570;2024-03-08T06:08:51;96718.78;;;1.06;100.00
47330;BME280;33060;50.178;7.570;2024-03-08T06:11:19;96712.00;;;1.02;100.00
47330;BME280;33060;50.178;7.570;2024-03-08T06:13:47;96706.94;;;0.99;100.00
47330;BME280;33060;50.178;7.570;2024-03-08T06:16:13;96703.38;;;1.02;100.00
47330;BME280;33060;50.178;7.570;2024-03-08T06:18:40;96708.50;;;1.03;100.00
47330;BME280;33060;50.178;7.570;2024-03-08T06:21:08;96703.31;;;1.03;100.00
47330;BME280;33060;50.178;7.570;2024-03-08T06:23:36;96702.94;;;1.14;100.00
47330;BME280;33060;50.178;7.570;2024-03-08T06:26:05;96690.09;;;1.09;100.00
47330;BME280;33060;50.178;7.570;2024-03-08T06:28:32;96690.94;;;1.10;100.00
47330;BME280;33060;50.178;7.570;2024-03-08T06:30:59;96704.19;;;1.26;100.00
47330;BME280;33060;50.178;7.570;2024-03-08T06:33:27;96701.72;;;1.23;100.00
47330;BME280;33060;50.178;7.570;2024-03-08T06:35:55;96700.38;;;1.34;100.00
47330;BME280;33060;50.178;7.570;2024-03-08T06:38:24;96697.50;;;1.42;100.00
47330;BME280;33060;50.178;7.570;2024-03-08T06:40:51;96693.50;;;1.33;100.00
47330;BME280;33060;50.178;7.570;2024-03-08T06:43:18;96692.16;;;1.45;100.00
47330;BME280;33060;50.178;7.570;2024-03-08T06:45:45;96689.63;;;1.44;100.00
47330;BME280;33060;50.178;7.570;2024-03-08T06:48:18;96702.50;;;1.47;100.00
47330;BME280;33060;50.178;7.570;2024-03-08T06:50:46;96707.09;;;1.62;100.00
47330;BME280;33060;50.178;7.570;2024-03-08T06:53:14;96711.75;;;1.54;100.00
47330;BME280;33060;50.178;7.570;2024-03-08T06:55:42;96703.34;;;1.89;100.00
47330;BME280;33060;50.178;7.570;2024-03-08T06:58:08;96698.75;;;1.96;100.00
47330;BME280;33060;50.178;7.570;2024-03-08T07:00:37;96703.63;;;2.04;100.00
47330;BME280;33060;50.178;7.570;2024-03-08T07:03:07;96697.53;;;2.05;100.00
47330;BME280;33060;50.178;7.570;2024-03-08T07:05:38;96697.84;;;1.97;100.00
47330;BME280;33060;50.178;7.570;2024-03-08T07:08:07;96703.38;;;2.30;100.00
47330;BME280;33060;50.178;7.570;2024-03-08T07:10:34;96697.91;;;2.16;100.00
47330;BME280;33060;50.178;7.570;2024-03-08T07:13:01;96689.97;;;2.39;100.00
47330;BME280;33060;50.178;7.570;2024-03-08T07:15:30;96692.72;;;2.36;100.00
47330;BME280;33060;50.178;7.570;2024-03-08T07:17:57;96697.31;;;2.30;100.00
47330;BME280;33060;50.178;7.570;2024-03-08T07:20:26;96689.22;;;2.56;100.00
47330;BME280;33060;50.178;7.570;2024-03-08T07:22:53;96694.50;;;2.54;100.00
47330;BME280;33060;50.178;7.570;2024-03-08T07:25:20;96686.13;;;2.67;100.00
47330;BME280;33060;50.178;7.570;2024-03-08T07:27:52;96676.03;;;2.79;100.00
47330;BME280;33060;50.178;7.570;2024-03-08T07:30:26;96669.13;;;2.78;100.00
47330;BME280;33060;50.178;7.570;2024-03-08T07:33:12;96665.38;;;3.03;100.00
47330;BME280;33060;50.178;7.570;2024-03-08T07:35:40;96675.13;;;2.99;100.00
47330;BME280;33060;50.178;7.570;2024-03-08T07:38:09;96673.06;;;3.25;100.00
47330;BME280;33060;50.178;7.570;2024-03-08T07:40:40;96671.97;;;3.29;100.00
47330;BME280;33060;50.178;7.570;2024-03-08T07:43:11;96670.69;;;3.37;100.00
47330;BME280;33060;50.178;7.570;2024-03-08T07:45:38;96670.59;;;3.22;100.00
47330;BME280;33060;50.178;7.570;2024-03-08T07:48:06;96667.38;;;3.17;100.00
47330;BME280;33060;50.178;7.570;2024-03-08T07:50:37;96670.53;;;3.23;100.00
47330;BME280;33060;50.178;7.570;2024-03-08T07:53:07;96659.56;;;3.70;100.00
47330;BME280;33060;50.178;7.570;2024-03-08T07:55:34;96658.56;;;3.73;100.00
47330;BME280;33060;50.178;7.570;2024-03-08T07:58:02;96661.72;;;3.96;100.00
47330;BME280;33060;50.178;7.570;2024-03-08T08:00:30;96647.53;;;4.02;100.00
47330;BME280;33060;50.178;7.570;2024-03-08T08:02:58;96649.22;;;4.03;100.00
47330;BME280;33060;50.178;7.570;2024-03-08T08:05:25;96643.63;;;3.93;100.00
47330;BME280;33060;50.178;7.570;2024-03-08T08:07:53;96637.63;;;4.26;99.89
47330;BME280;33060;50.178;7.570;2024-03-08T08:10:20;96634.59;;;4.34;97.48
47330;BME280;33060;50.178;7.570;2024-03-08T08:12:52;96641.44;;;4.69;97.54
47330;BME280;33060;50.178;7.570;2024-03-08T08:15:19;96631.75;;;4.71;94.82
47330;BME280;33060;50.178;7.570;2024-03-08T08:17:47;96629.38;;;4.82;94.49
47330;BME280;33060;50.178;7.570;2024-03-08T08:20:18;96626.69;;;4.84;94.08
47330;BME280;33060;50.178;7.570;2024-03-08T08:22:45;96633.69;;;4.99;92.72
47330;BME280;33060;50.178;7.570;2024-03-08T08:25:12;96631.75;;;5.03;91.25
47330;BME280;33060;50.178;7.570;2024-03-08T08:27:40;96641.44;;;4.85;89.71
47330;BME280;33060;50.178;7.570;2024-03-08T08:30:07;96639.59;;;5.03;90.99
47330;BME280;33060;50.178;7.570;2024-03-08T08:32:35;96638.94;;;5.15;89.35
47330;BME280;33060;50.178;7.570;2024-03-08T08:35:11;96624.75;;;5.19;87.44
47330;BME280;33060;50.178;7.570;2024-03-08T08:37:39;96633.38;;;5.21;88.54
47330;BME280;33060;50.178;7.570;2024-03-08T08:40:06;96636.13;;;5.02;87.09
47330;BME280;33060;50.178;7.570;2024-03-08T08:42:37;96618.91;;;5.46;86.04
47330;BME280;33060;50.178;7.570;2024-03-08T08:45:07;96625.28;;;5.56;86.02
47330;BME280;33060;50.178;7.570;2024-03-08T08:47:46;96619.16;;;5.57;85.32
47330;BME280;33060;50.178;7.570;2024-03-08T08:50:14;96619.09;;;5.73;83.73
47330;BME280;33060;50.178;7.570;2024-03-08T08:52:40;96611.72;;;5.95;83.95
47330;BME280;33060;50.178;7.570;2024-03-08T08:55:10;96612.97;;;6.04;81.50
47330;BME280;33060;50.178;7.570;2024-03-08T08:57:41;96621.59;;;5.60;82.84
47330;BME280;33060;50.178;7.570;2024-03-08T09:00:09;96612.41;;;5.37;83.10
47330;BME280;33060;50.178;7.570;2024-03-08T09:02:41;96602.78;;;5.37;82.13
47330;BME280;33060;50.178;7.570;2024-03-08T09:05:08;96597.75;;;5.34;81.82
47330;BME280;33060;50.178;7.570;2024-03-08T09:07:35;96601.47;;;5.30;82.78
47330;BME280;33060;50.178;7.570;2024-03-08T09:10:02;96597.69;;;5.66;82.70
47330;BME280;33060;50.178;7.570;2024-03-08T09:12:43;96589.78;;;5.52;79.82
47330;BME280;33060;50.178;7.570;2024-03-08T09:15:10;96588.81;;;5.68;82.66
47330;BME280;33060;50.178;7.570;2024-03-08T09:17:40;96582.53;;;5.57;80.08
47330;BME280;33060;50.178;7.570;2024-03-08T09:20:09;96575.38;;;5.75;81.69
47330;BME280;33060;50.178;7.570;2024-03-08T09:22:37;96576.91;;;5.63;77.86
47330;BME280;33060;50.178;7.570;2024-03-08T09:25:04;96587.28;;;5.64;78.72
47330;BME280;33060;50.178;7.570;2024-03-08T09:27:31;96585.41;;;5.82;79.45
47330;BME280;33060;50.178;7.570;2024-03-08T09:29:58;96584.06;;;6.05;76.89
47330;BME280;33060;50.178;7.570;2024-03-08T09:32:25;96575.28;;;6.06;79.91
47330;BME280;33060;50.178;7.570;2024-03-08T09:34:53;96561.63;;;6.30;74.73
47330;BME280;33060;50.178;7.570;2024-03-08T09:37:19;96568.19;;;6.37;74.35
47330;BME280;33060;50.178;7.570;2024-03-08T09:39:46;96568.09;;;6.38;73.45
47330;BME280;33060;50.178;7.570;2024-03-08T09:42:13;96550.59;;;6.39;74.07
47330;BME280;33060;50.178;7.570;2024-03-08T09:44:47;96546.41;;;6.36;73.96
47330;BME280;33060;50.178;7.570;2024-03-08T09:47:14;96555.19;;;6.35;72.62
47330;BME280;33060;50.178;7.570;2024-03-08T09:49:41;96546.00;;;6.42;70.83
47330;BME280;33060;50.178;7.570;2024-03-08T09:52:10;96536.47;;;6.41;72.99
47330;BME280;33060;50.178;7.570;2024-03-08T09:54:39;96532.91;;;6.42;72.84
47330;BME280;33060;50.178;7.570;2024-03-08T09:57:06;96541.38;;;6.74;72.05
47330;BME280;33060;50.178;7.570;2024-03-08T09:59:34;96531.00;;;6.73;69.73
47330;BME280;33060;50.178;7.570;2024-03-08T10:02:04;96535.44;;;6.99;69.98
47330;BME280;33060;50.178;7.570;2024-03-08T10:04:32;96534.09;;;6.79;69.25
47330;BME280;33060;50.178;7.570;2024-03-08T10:07:01;96523.00;;;6.89;70.68
47330;BME280;33060;50.178;7.570;2024-03-08T10:09:28;96522.47;;;7.11;69.29
47330;BME280;33060;50.178;7.570;2024-03-08T10:11:58;96519.00;;;6.83;68.05
47330;BME280;33060;50.178;7.570;2024-03-08T10:14:25;96514.13;;;6.77;68.20
47330;BME280;33060;50.178;7.570;2024-03-08T10:16:57;96521.97;;;6.91;68.06
47330;BME280;33060;50.178;7.570;2024-03-08T10:19:27;96514.69;;;7.09;71.70
47330;BME280;33060;50.178;7.570;2024-03-08T10:21:56;96516.00;;;7.29;67.18
47330;BME280;33060;50.178;7.570;2024-03-08T10:24:25;96510.06;;;6.59;65.57
47330;BME280;33060;50.178;7.570;2024-03-08T10:26:53;96508.72;;;6.80;68.18
47330;BME280;33060;50.178;7.570;2024-03-08T10:29:20;96509.69;;;7.19;69.50
47330;BME280;33060;50.178;7.570;2024-03-08T10:31:47;96498.50;;;7.29;68.92
47330;BME280;33060;50.178;7.570;2024-03-08T10:34:14;96488.53;;;7.34;64.41
47330;BME280;33060;50.178;7.570;2024-03-08T10:36:41;96497.53;;;7.18;65.33
47330;BME280;33060;50.178;7.570;2024-03-08T10:39:22;96494.78;;;7.19;66.84
47330;BME280;33060;50.178;7.570;2024-03-08T10:41:58;96483.34;;;7.20;62.89
47330;BME280;33060;50.178;7.570;2024-03-08T10:47:12;96478.94;;;7.48;62.64
47330;BME280;33060;50.178;7.570;2024-03-08T10:49:53;96482.63;;;7.71;63.23
47330;BME280;33060;50.178;7.570;2024-03-08T10:52:21;96493.84;;;7.60;63.17
47330;BME280;33060;50.178;7.570;2024-03-08T10:54:52;96479.78;;;7.48;64.31
47330;BME280;33060;50.178;7.570;2024-03-08T10:57:19;96475.06;;;8.04;64.52
47330;BME280;33060;50.178;7.570;2024-03-08T10:59:47;96482.00;;;7.80;63.37
47330;BME280;33060;50.178;7.570;2024-03-08T11:02:17;96489.09;;;7.52;59.89
47330;BME280;33060;50.178;7.570;2024-03-08T11:04:50;96481.78;;;7.57;62.34
47330;BME280;33060;50.178;7.570;2024-03-08T11:07:17;96477.16;;;7.86;63.25
47330;BME280;33060;50.178;7.570;2024-03-08T11:09:49;96462.44;;;8.22;63.36
47330;BME280;33060;50.178;7.570;2024-03-08T11:12:25;96476.28;;;8.24;59.52
47330;BME280;33060;50.178;7.570;2024-03-08T11:14:53;96474.66;;;7.85;57.70
47330;BME280;33060;50.178;7.570;2024-03-08T11:17:25;96472.22;;;8.07;60.23
47330;BME280;33060;50.178;7.570;2024-03-08T11:19:55;96473.91;;;7.57;60.60
47330;BME280;33060;50.178;7.570;2024-03-08T11:22:27;96462.66;;;7.81;63.78
47330;BME280;33060;50.178;7.570;2024-03-08T11:24:58;96457.50;;;8.05;64.80
47330;BME280;33060;50.178;7.570;2024-03-08T11:27:30;96464.25;;;7.83;61.14
47330;BME280;33060;50.178;7.570;2024-03-08T11:30:03;96462.16;;;8.01;63.87
47330;BME280;33060;50.178;7.570;2024-03-08T11:32:47;96452.63;;;8.24;63.79
47330;BME280;33060;50.178;7.570;2024-03-08T11:35:19;96448.91;;;8.03;61.16
47330;BME280;33060;50.178;7.570;2024-03-08T11:37:46;96458.97;;;7.45;60.53
47330;BME280;33060;50.178;7.570;2024-03-08T11:40:15;96450.69;;;7.89;64.74
47330;BME280;33060;50.178;7.570;2024-03-08T11:42:47;96447.13;;;7.78;61.66
47330;BME280;33060;50.178;7.570;2024-03-08T11:45:15;96439.50;;;8.24;64.66
47330;BME280;33060;50.178;7.570;2024-03-08T11:47:44;96439.00;;;8.19;64.86
47330;BME280;33060;50.178;7.570;2024-03-08T11:50:14;96439.81;;;8.32;62.16
47330;BME280;33060;50.178;7.570;2024-03-08T11:52:41;96435.50;;;8.31;63.23
47330;BME280;33060;50.178;7.570;2024-03-08T11:55:11;96434.19;;;8.13;63.04
47330;BME280;33060;50.178;7.570;2024-03-08T11:57:39;96423.78;;;7.99;61.46
47330;BME280;33060;50.178;7.570;2024-03-08T12:00:06;96418.00;;;8.06;63.47
47330;BME280;33060;50.178;7.570;2024-03-08T12:03:03;96415.41;;;7.93;59.49
47330;BME280;33060;50.178;7.570;2024-03-08T12:05:30;96417.88;;;8.20;62.24
47330;BME280;33060;50.178;7.570;2024-03-08T12:08:03;96412.53;;;8.59;61.89
47330;BME280;33060;50.178;7.570;2024-03-08T12:10:31;96411.44;;;8.25;60.90
47330;BME280;33060;50.178;7.570;2024-03-08T12:12:59;96405.38;;;8.37;61.75
47330;BME280;33060;50.178;7.570;2024-03-08T12:15:27;96406.81;;;8.28;62.57
47330;BME280;33060;50.178;7.570;2024-03-08T12:17:55;96395.69;;;8.25;61.35
47330;BME280;33060;50.178;7.570;2024-03-08T12:20:23;96400.47;;;8.56;60.64
47330;BME280;33060;50.178;7.570;2024-03-08T12:22:55;96386.91;;;8.49;59.72
47330;BME280;33060;50.178;7.570;2024-03-08T12:25:30;96390.47;;;8.61;60.65
47330;BME280;33060;50.178;7.570;2024-03-08T12:28:07;96383.56;;;8.71;59.86
47330;BME280;33060;50.178;7.570;2024-03-08T12:30:57;96386.53;;;8.43;59.67
47330;BME280;33060;50.178;7.570;2024-03-08T12:33:26;96388.03;;;8.58;59.57
47330;BME280;33060;50.178;7.570;2024-03-08T12:35:55;96384.69;;;8.19;57.81
47330;BME280;33060;50.178;7.570;2024-03-08T12:38:23;96377.34;;;8.48;58.38
47330;BME280;33060;50.178;7.570;2024-03-08T12:41:00;96372.81;;;8.74;57.40
47330;BME280;33060;50.178;7.570;2024-03-08T12:43:28;96376.91;;;8.55;57.68
47330;BME280;33060;50.178;7.570;2024-03-08T12:46:00;96365.22;;;8.83;57.88
47330;BME280;33060;50.178;7.570;2024-03-08T12:48:27;96362.13;;;8.41;56.87
47330;BME280;33060;50.178;7.570;2024-03-08T12:50:53;96364.50;;;8.81;57.68
47330;BME280;33060;50.178;7.570;2024-03-08T12:53:21;96350.38;;;8.82;56.95
47330;BME280;33060;50.178;7.570;2024-03-08T12:55:50;96355.81;;;8.67;55.24
47330;BME280;33060;50.178;7.570;2024-03-08T12:58:17;96343.41;;;8.69;56.22
47330;BME280;33060;50.178;7.570;2024-03-08T13:00:44;96327.03;;;8.77;56.45
47330;BME280;33060;50.178;7.570;2024-03-08T13:03:11;96337.88;;;8.61;55.11
47330;BME280;33060;50.178;7.570;2024-03-08T13:05:40;96340.97;;;8.55;54.78
47330;BME280;33060;50.178;7.570;2024-03-08T13:08:17;96332.13;;;8.56;54.72
47330;BME280;33060;50.178;7.570;2024-03-08T13:10:47;96321.28;;;8.96;56.70
47330;BME280;33060;50.178;7.570;2024-03-08T13:13:15;96317.31;;;9.01;55.68
47330;BME280;33060;50.178;7.570;2024-03-08T13:15:45;96305.69;;;8.82;55.76